Time;durP1;ratioP1;P1;durP2;ratioP2;P2;SDS_P1;SDS_P2;PMS_P1;PMS_P2;Temp;Humidity;BMP_temperature;BMP_pressure;BME280_temperature;BME280_humidity;BME280_pressure;Samples;Min_cycle;Max_cycle;Signal;HPM_P1;HPM_P2
2023/02/09 00:00:50;;;;;;;23.63;14.77;;;;;;;-9.43;100.00;94180.66;2094610;28;20477;-73
2023/02/09 00:01:51;;;;;;;23.27;14.88;;;;;;;-9.43;100.00;94183.25;2094246;28;20619;-73
2023/02/09 00:02:52;;;;;;;25.10;15.35;;;;;;;-9.49;100.00;94177.28;2104894;28;20036;-73
2023/02/09 00:03:53;;;;;;;27.48;14.75;;;;;;;-9.52;100.00;94177.06;2104510;28;20462;-73
2023/02/09 00:04:54;;;;;;;22.35;15.00;;;;;;;-9.43;100.00;94172.91;2103695;28;20489;-71
2023/02/09 00:05:58;;;;;;;26.00;15.07;;;;;;;-9.44;100.00;94176.50;2101396;28;20438;-73
2023/02/09 00:07:02;;;;;;;23.33;14.65;;;;;;;-9.41;100.00;94174.16;2094381;28;20454;-73
2023/02/09 00:08:03;;;;;;;23.45;13.85;;;;;;;-9.42;100.00;94179.63;2089825;28;20510;-72
2023/02/09 00:09:04;;;;;;;24.60;14.88;;;;;;;-9.42;100.00;94177.03;2095152;28;20885;-75
2023/02/09 00:10:05;;;;;;;24.45;15.05;;;;;;;-9.51;100.00;94176.03;2104140;28;20115;-73
2023/02/09 00:11:09;;;;;;;22.30;13.68;;;;;;;-9.53;100.00;94173.69;2103938;28;20050;-75
2023/02/09 00:13:30;;;;;;;24.05;14.60;;;;;;;-9.50;100.00;94170.56;2096823;28;20488;-72
2023/02/09 00:14:33;;;;;;;24.40;14.65;;;;;;;-9.68;100.00;94174.50;2095490;28;20549;-76
2023/02/09 00:15:36;;;;;;;23.75;14.40;;;;;;;-9.53;100.00;94170.31;2079078;28;20479;-74
2023/02/09 00:16:37;;;;;;;24.88;14.10;;;;;;;-9.53;100.00;94167.72;2079582;28;21326;-72
2023/02/09 00:17:38;;;;;;;23.08;14.02;;;;;;;-9.50;100.00;94173.16;2090026;28;20487;-71
2023/02/09 00:18:39;;;;;;;25.73;14.70;;;;;;;-9.53;100.00;94175.50;2096612;28;20467;-73
2023/02/09 00:19:40;;;;;;;24.48;14.57;;;;;;;-9.49;100.00;94168.75;2086796;28;20578;-72
2023/02/09 00:20:41;;;;;;;25.23;14.25;;;;;;;-9.43;100.00;94172.91;2096572;28;20032;-73
2023/02/09 00:21:57;;;;;;;25.67;14.88;;;;;;;-9.50;100.00;94169.81;2094509;28;20431;-73
2023/02/09 00:22:58;;;;;;;24.13;14.70;;;;;;;-9.63;100.00;94169.31;2098145;28;20461;-73
2023/02/09 00:23:59;;;;;;;23.23;15.00;;;;;;;-9.56;100.00;94173.47;2096219;28;20963;-73
2023/02/09 00:25:00;;;;;;;23.05;14.23;;;;;;;-9.63;100.00;94163.38;2094614;28;20036;-72
2023/02/09 00:26:04;;;;;;;24.55;14.27;;;;;;;-9.63;100.00;94176.31;2103414;28;20047;-75
2023/02/09 00:27:05;;;;;;;22.55;14.40;;;;;;;-9.57;100.00;94166.72;2103261;28;20460;-75
2023/02/09 00:28:06;;;;;;;23.90;13.75;;;;;;;-9.55;100.00;94173.19;2096185;28;20972;-74
2023/02/09 00:29:08;;;;;;;22.42;14.52;;;;;;;-9.58;100.00;94173.69;2089218;28;20055;-74
2023/02/09 00:30:09;;;;;;;22.40;13.88;;;;;;;-9.56;100.00;94165.69;2094412;28;20475;-72
2023/02/09 00:31:11;;;;;;;24.55;13.52;;;;;;;-9.56;100.00;94163.88;2104001;28;20446;-75
2023/02/09 00:32:19;;;;;;;22.48;13.77;;;;;;;-9.58;100.00;94160.75;2104394;28;20442;-74
2023/02/09 00:33:21;;;;;;;24.83;14.48;;;;;;;-9.61;100.00;94156.13;2095560;28;21150;-72
2023/02/09 00:34:22;;;;;;;24.70;15.20;;;;;;;-9.66;100.00;94159.53;2095070;28;20082;-72
2023/02/09 00:35:24;;;;;;;23.95;15.05;;;;;;;-9.75;100.00;94160.31;2096223;28;21061;-72
2023/02/09 00:36:38;;;;;;;25.52;14.52;;;;;;;-9.72;100.00;94167.53;2076820;28;20119;-74
2023/02/09 00:37:40;;;;;;;24.73;13.90;;;;;;;-9.69;100.00;94156.69;2080001;28;20843;-76
2023/02/09 00:38:42;;;;;;;25.48;14.85;;;;;;;-9.73;100.00;94161.59;2096207;28;20434;-75
2023/02/09 00:39:43;;;;;;;22.90;14.23;;;;;;;-9.73;100.00;94164.19;2103134;28;20525;-73
2023/02/09 00:40:47;;;;;;;23.60;14.25;;;;;;;-9.67;100.00;94154.59;2095627;28;20975;-74
2023/02/09 00:42:04;;;;;;;22.35;13.63;;;;;;;-9.72;100.00;94154.59;2093670;28;20159;-73
2023/02/09 00:43:07;;;;;;;21.77;14.07;;;;;;;-9.67;100.00;94159.75;2093415;28;20455;-72
2023/02/09 00:44:09;;;;;;;24.15;14.55;;;;;;;-9.73;100.00;94153.84;2087433;28;20486;-73
2023/02/09 00:45:12;;;;;;;24.30;13.68;;;;;;;-9.76;100.00;94156.94;2095477;28;20463;-74
2023/02/09 00:46:16;;;;;;;27.27;14.85;;;;;;;-9.78;100.00;94151.28;2086616;28;20443;-72
2023/02/09 00:47:16;;;;;;;27.52;15.52;;;;;;;-9.87;100.00;94158.03;2087157;28;20977;-72
2023/02/09 00:48:17;;;;;;;24.90;14.65;;;;;;;-9.87;100.00;94165.00;2087741;28;20032;-73
2023/02/09 00:49:20;;;;;;;22.92;13.75;;;;;;;-9.84;100.00;94160.06;2086603;28;20360;-72
2023/02/09 00:50:21;;;;;;;23.25;14.52;;;;;;;-9.78;100.00;94156.44;2095223;28;20024;-72
2023/02/09 00:51:22;;;;;;;27.70;14.98;;;;;;;-9.73;100.00;94153.06;2094833;28;21031;-75
2023/02/09 00:52:34;;;;;;;24.73;13.73;;;;;;;-9.86;100.00;94166.56;2096106;28;20488;-71
2023/02/09 00:53:36;;;;;;;25.63;14.65;;;;;;;-9.93;100.00;94159.81;2088439;28;20489;-72
2023/02/09 00:54:37;;;;;;;26.25;14.50;;;;;;;-9.88;100.00;94161.63;2078961;28;20464;-74
2023/02/09 00:55:38;;;;;;;24.02;14.13;;;;;;;-9.89;100.00;94160.84;2086922;28;20474;-74
2023/02/09 00:56:54;;;;;;;23.08;12.85;;;;;;;-9.82;100.00;94163.19;2097261;28;20952;-73
2023/02/09 00:57:55;;;;;;;23.15;13.63;;;;;;;-9.79;100.00;94161.84;2083966;28;20948;-72
2023/02/09 00:58:57;;;;;;;23.50;14.07;;;;;;;-9.84;100.00;94157.47;2086616;28;20517;-73
2023/02/09 00:59:58;;;;;;;22.50;13.10;;;;;;;-9.82;100.00;94165.75;2094838;28;20635;-72
2023/02/09 01:00:59;;;;;;;28.25;14.43;;;;;;;-9.89;100.00;94166.03;2078222;28;20475;-72
2023/02/09 01:02:00;;;;;;;22.00;13.85;;;;;;;-9.84;100.00;94160.06;2071111;28;20475;-73
2023/02/09 01:03:02;;;;;;;22.55;13.48;;;;;;;-9.74;100.00;94162.66;2079453;28;20464;-72
2023/02/09 01:04:03;;;;;;;27.77;14.95;;;;;;;-9.84;100.00;94162.66;2085653;28;20458;-74
2023/02/09 01:05:05;;;;;;;23.65;14.48;;;;;;;-9.90;100.00;94166.28;2097690;28;20511;-73
2023/02/09 01:06:06;;;;;;;22.40;13.70;;;;;;;-9.93;100.00;94159.81;2094025;28;20501;-72
2023/02/09 01:07:08;;;;;;;28.15;13.88;;;;;;;-9.96;100.00;94162.19;2094887;28;20451;-73
2023/02/09 01:08:09;;;;;;;23.15;13.50;;;;;;;-9.96;100.00;94157.78;2095681;28;20867;-73
2023/02/09 01:09:10;;;;;;;23.10;13.73;;;;;;;-9.96;100.00;94157.00;2086390;28;20478;-73
2023/02/09 01:10:12;;;;;;;24.40;13.43;;;;;;;-9.98;100.00;94161.66;2087390;28;20451;-72
2023/02/09 01:11:15;;;;;;;22.23;14.02;;;;;;;-10.05;100.00;94156.75;2078073;28;20468;-72
2023/02/09 01:12:16;;;;;;;23.73;13.90;;;;;;;-10.15;100.00;94152.38;2086412;28;20490;-74
2023/02/09 01:13:17;;;;;;;23.48;13.18;;;;;;;-10.04;100.00;94162.72;2103853;28;20429;-73
2023/02/09 01:14:18;;;;;;;25.23;14.15;;;;;;;-10.16;100.00;94156.00;2103702;28;20445;-72
2023/02/09 01:15:19;;;;;;;24.42;14.35;;;;;;;-10.06;100.00;94155.19;2102561;28;20812;-73
2023/02/09 01:16:20;;;;;;;22.50;13.60;;;;;;;-10.12;100.00;94158.84;2103446;28;20430;-75
2023/02/09 01:17:22;;;;;;;23.95;14.55;;;;;;;-10.22;100.00;94151.88;2087299;28;20490;-74
2023/02/09 01:18:24;;;;;;;23.80;13.85;;;;;;;-10.12;100.00;94156.25;2089244;28;20455;-75
2023/02/09 01:19:25;;;;;;;25.92;15.68;;;;;;;-10.11;100.00;94154.44;2085255;28;20490;-72
2023/02/09 01:20:27;;;;;;;24.65;14.07;;;;;;;-10.16;100.00;94158.56;2086221;28;20926;-74
2023/02/09 01:21:29;;;;;;;24.83;14.18;;;;;;;-10.21;100.00;94148.25;2102827;28;20453;-73
2023/02/09 01:22:30;;;;;;;24.27;14.43;;;;;;;-10.22;100.00;94161.44;2103144;28;20119;-75
2023/02/09 01:23:32;;;;;;;25.20;14.75;;;;;;;-10.24;100.00;94159.09;2103944;28;20448;-74
2023/02/09 01:24:33;;;;;;;25.33;14.27;;;;;;;-10.20;100.00;94160.13;2102913;28;20491;-75
2023/02/09 01:25:34;;;;;;;25.85;14.70;;;;;;;-10.24;100.00;94163.53;2102996;28;20446;-74
2023/02/09 01:26:47;;;;;;;25.45;14.30;;;;;;;-10.20;100.00;94160.13;2102970;28;21312;-71
2023/02/09 01:27:48;;;;;;;22.67;13.73;;;;;;;-10.18;100.00;94152.91;2103707;28;20997;-73
2023/02/09 01:28:51;;;;;;;26.63;14.70;;;;;;;-10.14;100.00;94155.72;2093716;28;20473;-73
2023/02/09 01:29:52;;;;;;;26.98;14.60;;;;;;;-10.13;100.00;94156.53;2095673;28;20060;-73
2023/02/09 01:30:53;;;;;;;24.55;14.50;;;;;;;-10.20;100.00;94149.00;2104205;28;20445;-72
2023/02/09 01:31:54;;;;;;;23.73;14.95;;;;;;;-10.28;100.00;94147.75;2085856;28;20068;-75
2023/02/09 01:32:55;;;;;;;23.23;13.98;;;;;;;-10.21;100.00;94152.66;2085891;28;20028;-73
2023/02/09 01:33:58;;;;;;;26.27;14.23;;;;;;;-10.20;100.00;94152.38;2097684;28;20503;-72
2023/02/09 01:34:59;;;;;;;21.58;13.43;;;;;;;-10.25;100.00;94149.81;2080011;28;20026;-74
2023/02/09 01:36:03;;;;;;;26.00;14.48;;;;;;;-10.08;100.00;94146.94;2088382;28;20455;-73
2023/02/09 01:37:04;;;;;;;26.20;14.90;;;;;;;-10.07;100.00;94140.72;2104462;28;20457;-71
2023/02/09 01:38:05;;;;;;;22.77;14.93;;;;;;;-10.14;100.00;94142.78;2096448;28;20533;-74
2023/02/09 01:39:07;;;;;;;24.63;13.88;;;;;;;-10.17;100.00;94143.34;2089291;28;20453;-74
2023/02/09 01:40:09;;;;;;;23.33;13.55;;;;;;;-10.12;100.00;94140.75;2086959;28;20440;-72
2023/02/09 01:41:10;;;;;;;24.10;13.95;;;;;;;-10.15;100.00;94147.19;2080477;28;20471;-73
2023/02/09 01:42:18;;;;;;;22.55;15.13;;;;;;;-10.20;100.00;94139.44;2086695;28;20741;-73
2023/02/09 01:43:20;;;;;;;22.90;14.05;;;;;;;-10.20;100.00;94141.25;2085666;28;20833;-73
2023/02/09 01:44:20;;;;;;;27.77;15.35;;;;;;;-10.20;100.00;94149.00;2070072;28;20468;-72
2023/02/09 01:45:28;;;;;;;25.33;14.60;;;;;;;-10.19;100.00;94135.06;2078938;28;20472;-72
2023/02/09 01:46:43;;;;;;;23.40;13.40;;;;;;;-10.17;100.00;94141.53;2089548;28;20029;-73
2023/02/09 01:47:49;;;;;;;22.55;14.15;;;;;;;-9.99;100.00;94145.38;2094315;28;20462;-73
2023/02/09 01:48:57;;;;;;;22.77;14.88;;;;;;;-10.07;100.00;94143.31;2086194;28;20900;-73
2023/02/09 01:49:58;;;;;;;24.25;14.00;;;;;;;-10.14;100.00;94142.78;2086480;28;20479;-72
2023/02/09 01:51:00;;;;;;;24.92;14.40;;;;;;;-9.95;100.00;94150.78;2093612;28;20521;-74
2023/02/09 01:52:04;;;;;;;24.08;14.07;;;;;;;-9.85;100.00;94130.06;2086216;28;20884;-72
2023/02/09 01:53:06;;;;;;;22.52;14.18;;;;;;;-9.99;100.00;94137.59;2081626;28;20537;-75
2023/02/09 01:54:12;;;;;;;23.38;13.27;;;;;;;-9.90;100.00;94143.03;2086223;28;20455;-72
2023/02/09 01:55:17;;;;;;;23.75;13.85;;;;;;;-9.94;100.00;94150.53;2094520;28;20539;-71
2023/02/09 01:56:45;;;;;;;23.10;14.45;;;;;;;-10.39;100.00;94148.03;2097486;28;20454;-72
2023/02/09 01:57:58;;;;;;;22.63;13.50;;;;;;;-10.30;100.00;94149.84;2096329;28;20486;-72
2023/02/09 01:58:59;;;;;;;24.42;13.80;;;;;;;-10.26;100.00;94137.94;2086813;28;20491;-72
2023/02/09 02:00:14;;;;;;;22.65;13.13;;;;;;;-10.23;100.00;94144.34;2078351;28;20869;-72
2023/02/09 02:01:16;;;;;;;23.00;13.27;;;;;;;-10.21;100.00;94145.66;2077195;28;20480;-73
2023/02/09 02:02:18;;;;;;;21.55;13.40;;;;;;;-10.26;100.00;94145.69;2085230;28;20459;-72
2023/02/09 02:03:23;;;;;;;22.15;12.95;;;;;;;-10.15;100.00;94146.41;2078107;28;20479;-73
2023/02/09 02:04:25;;;;;;;25.67;15.10;;;;;;;-10.24;100.00;94142.84;2069924;28;20452;-75
2023/02/09 02:05:28;;;;;;;26.90;14.93;;;;;;;-10.29;100.00;94137.69;2078277;28;20513;-75
2023/02/09 02:06:31;;;;;;;24.63;14.45;;;;;;;-10.37;100.00;94128.66;2077980;28;20519;-74
2023/02/09 02:08:03;;;;;;;26.25;13.75;;;;;;;-10.25;100.00;94129.16;2095134;28;20454;-72
2023/02/09 02:09:11;;;;;;;21.98;13.43;;;;;;;-10.25;100.00;94129.16;2087288;28;20467;-72
2023/02/09 02:10:13;;;;;;;23.95;14.20;;;;;;;-10.31;100.00;94126.84;2078857;28;20958;-75
2023/02/09 02:11:15;;;;;;;21.13;13.38;;;;;;;-10.29;100.00;94130.72;2080098;28;21003;-74
2023/02/09 02:12:18;;;;;;;26.23;13.90;;;;;;;-10.31;100.00;94125.03;2080402;28;20558;-74
2023/02/09 02:13:20;;;;;;;21.15;13.90;;;;;;;-10.29;100.00;94128.13;2087891;28;21200;-75
2023/02/09 02:14:32;;;;;;;25.20;14.15;;;;;;;-10.33;100.00;94118.56;2105360;28;20453;-73
2023/02/09 02:15:46;;;;;;;22.25;13.52;;;;;;;-10.10;100.00;94120.56;2095989;28;20496;-75
2023/02/09 02:17:12;;;;;;;26.90;14.23;;;;;;;-10.24;100.00;94122.16;2089754;28;20497;-75
2023/02/09 02:18:33;;;;;;;26.10;13.90;;;;;;;-10.24;100.00;94119.59;2098044;28;20967;-74
2023/02/09 02:19:54;;;;;;;24.50;14.52;;;;;;;-10.20;100.00;94123.94;2087642;28;20944;-75
2023/02/09 02:20:55;;;;;;;20.77;13.02;;;;;;;-10.13;100.00;94123.69;2076947;28;20480;-74
2023/02/09 02:22:25;;;;;;;21.05;13.50;;;;;;;-10.16;100.00;94117.22;2070356;28;20034;-77
2023/02/09 02:23:40;;;;;;;24.05;13.43;;;;;;;-10.38;100.00;94116.00;2084745;28;21227;-76
2023/02/09 02:24:53;;;;;;;24.85;13.98;;;;;;;-10.34;100.00;94112.63;2096464;28;20522;-74
2023/02/09 02:26:15;;;;;;;23.70;13.68;;;;;;;-10.38;100.00;94119.34;2104146;28;20464;-73
2023/02/09 02:28:01;;;;;;;23.90;13.57;;;;;;;-10.35;100.00;94116.25;2103978;28;20438;-74
2023/02/09 02:29:39;;;;;;;19.63;11.93;;;;;;;-10.32;100.00;94110.53;2061238;28;20466;-75
2023/02/09 02:31:19;;;;;;;21.13;11.85;;;;;;;-10.05;100.00;94112.00;2065914;28;20460;-76
2023/02/09 02:32:41;;;;;;;21.42;12.45;;;;;;;-10.32;100.00;94118.28;2102338;28;20433;-77
2023/02/09 02:34:16;;;;;;;23.75;13.75;;;;;;;-10.46;100.00;94115.47;2093549;28;20440;-74
2023/02/09 02:35:28;;;;;;;21.05;12.43;;;;;;;-10.29;100.00;94122.94;2080817;28;20142;-74
2023/02/09 02:36:56;;;;;;;20.02;12.68;;;;;;;-10.43;100.00;94120.13;2093742;28;20453;-75
2023/02/09 02:38:00;;;;;;;21.38;12.75;;;;;;;-10.46;100.00;94107.72;2097481;28;20968;-76
2023/02/09 02:39:24;;;;;;;21.40;13.68;;;;;;;-10.31;100.00;94116.50;2104292;28;20467;-74
2023/02/09 02:41:00;;;;;;;22.60;12.65;;;;;;;-10.43;100.00;94112.38;2084276;28;21079;-74
2023/02/09 02:43:58;;;;;;;22.92;12.82;;;;;;;-10.51;100.00;94117.28;2100706;28;20445;-77
2023/02/09 02:45:34;;;;;;;23.00;13.63;;;;;;;-10.60;100.00;94118.84;2102609;28;20442;-73
2023/02/09 02:46:47;;;;;;;21.70;12.43;;;;;;;-10.60;100.00;94124.00;2069134;28;20635;-75
2023/02/09 02:48:03;;;;;;;24.13;13.65;;;;;;;-10.62;100.00;94113.97;2093276;28;20807;-75
2023/02/09 02:49:32;;;;;;;23.17;13.55;;;;;;;-10.49;100.00;94120.38;2093991;28;20489;-76
2023/02/09 02:50:42;;;;;;;23.00;12.90;;;;;;;-10.62;100.00;94120.91;2095332;28;20481;-74
2023/02/09 02:51:47;;;;;;;24.08;13.13;;;;;;;-10.69;100.00;94126.34;2094781;28;20427;-74
2023/02/09 02:52:55;;;;;;;23.88;14.18;;;;;;;-10.76;100.00;94123.22;2085694;28;20458;-77
2023/02/09 02:53:59;;;;;;;24.75;14.60;;;;;;;-10.70;100.00;94115.25;2091408;28;20428;-75
2023/02/09 02:55:06;;;;;;;24.20;14.07;;;;;;;-10.67;100.00;94127.66;2089097;28;20550;-72
2023/02/09 02:56:17;;;;;;;23.80;14.57;;;;;;;-10.76;100.00;94124.00;2076783;28;20522;-77
2023/02/09 02:57:22;;;;;;;24.73;13.82;;;;;;;-10.70;100.00;94120.41;2082898;28;20895;-73
2023/02/09 02:58:25;;;;;;;25.00;14.52;;;;;;;-10.75;100.00;94123.00;2087539;28;20462;-73
2023/02/09 02:59:30;;;;;;;25.58;14.65;;;;;;;-10.66;100.00;94128.41;2085531;28;20543;-73
2023/02/09 03:00:38;;;;;;;24.00;13.77;;;;;;;-10.65;100.00;94124.78;2093619;28;20536;-75
2023/02/09 03:01:54;;;;;;;27.65;14.52;;;;;;;-10.62;100.00;94123.47;2094420;28;20664;-74
2023/02/09 03:03:00;;;;;;;23.77;13.73;;;;;;;-10.55;100.00;94118.84;2093536;28;20454;-76
2023/02/09 03:04:03;;;;;;;22.65;14.05;;;;;;;-10.56;100.00;94119.88;2092529;28;20046;-75
2023/02/09 03:05:07;;;;;;;20.92;13.65;;;;;;;-10.60;100.00;94126.59;2085828;28;20486;-72
2023/02/09 03:06:09;;;;;;;27.10;15.18;;;;;;;-10.62;100.00;94126.06;2095131;28;20466;-72
2023/02/09 03:07:10;;;;;;;24.80;14.77;;;;;;;-10.63;100.00;94121.94;2093565;28;20814;-72
2023/02/09 03:08:12;;;;;;;24.95;14.38;;;;;;;-10.63;100.00;94114.97;2094159;28;20545;-72
2023/02/09 03:09:12;;;;;;;26.77;15.02;;;;;;;-10.61;100.00;94118.09;2085077;28;20818;-72
2023/02/09 03:10:28;;;;;;;24.38;14.60;;;;;;;-10.59;100.00;94116.00;2085894;28;20452;-72
2023/02/09 03:11:35;;;;;;;26.23;15.43;;;;;;;-10.55;100.00;94118.84;2104106;28;20615;-72
2023/02/09 03:12:38;;;;;;;26.38;15.73;;;;;;;-10.55;100.00;94113.69;2088247;28;20459;-73
2023/02/09 03:13:56;;;;;;;24.50;14.60;;;;;;;-10.59;100.00;94110.84;2088056;28;20495;-72
2023/02/09 03:15:15;;;;;;;23.13;14.75;;;;;;;-10.62;100.00;94110.56;2093924;28;20996;-73
2023/02/09 03:16:41;;;;;;;27.45;14.85;;;;;;;-10.69;100.00;94119.38;2094932;28;20459;-73
2023/02/09 03:18:09;;;;;;;26.27;14.00;;;;;;;-10.68;100.00;94115.75;2090880;28;20443;-72
2023/02/09 03:19:22;;;;;;;27.40;13.27;;;;;;;-10.73;100.00;94123.50;2089951;28;20451;-73
2023/02/09 03:20:37;;;;;;;21.88;13.57;;;;;;;-10.66;100.00;94118.84;2097679;28;20561;-72
2023/02/09 03:21:52;;;;;;;25.52;13.73;;;;;;;-10.72;100.00;94112.13;2095845;28;20458;-73
2023/02/09 03:22:59;;;;;;;25.40;14.02;;;;;;;-10.76;100.00;94115.47;2080904;28;20562;-72
2023/02/09 03:24:04;;;;;;;23.25;13.32;;;;;;;-10.72;100.00;94116.50;2070084;28;20445;-72
2023/02/09 03:25:18;;;;;;;22.92;14.45;;;;;;;-10.82;100.00;94111.34;2080399;28;20467;-72
2023/02/09 03:26:48;;;;;;;21.58;12.48;;;;;;;-10.88;100.00;94110.59;2091663;28;20983;-72
2023/02/09 03:27:58;;;;;;;26.05;14.13;;;;;;;-10.87;100.00;94111.38;2085081;28;21380;-73
2023/02/09 03:29:00;;;;;;;;;;;;;;;-10.82;100.00;94117.28;2079265;28;20060;-72
2023/02/09 03:30:06;;;;;;;26.05;12.60;;;;;;;-10.81;100.00;94108.50;2073557;28;20442;-72
2023/02/09 03:31:08;;;;;;;25.17;13.82;;;;;;;-10.85;100.00;94117.81;2071887;28;20467;-73
2023/02/09 03:32:13;;;;;;;26.20;13.80;;;;;;;-10.83;100.00;94114.97;2073301;28;20500;-72
2023/02/09 03:33:21;;;;;;;25.33;14.10;;;;;;;-10.83;100.00;94113.16;2072764;28;21798;-73
2023/02/09 03:34:23;;;;;;;25.50;13.27;;;;;;;-10.73;100.00;94112.38;2088497;28;20483;-73
2023/02/09 03:35:32;;;;;;;24.95;13.85;;;;;;;-10.79;100.00;94110.84;2096053;28;20459;-73
2023/02/09 03:36:40;;;;;;;22.33;13.60;;;;;;;-10.81;100.00;94124.00;2080204;28;20464;-72
2023/02/09 03:37:44;;;;;;;25.17;13.32;;;;;;;-10.85;100.00;94119.63;2080992;28;20952;-72
2023/02/09 03:38:45;;;;;;;23.10;14.68;;;;;;;-10.86;100.00;94118.06;2088322;28;20634;-72
2023/02/09 03:39:46;;;;;;;21.77;14.18;;;;;;;-10.79;100.00;94110.84;2070810;28;20503;-72
2023/02/09 03:40:47;;;;;;;21.80;13.95;;;;;;;-10.68;100.00;94112.38;2070799;28;20465;-72
2023/02/09 03:41:52;;;;;;;23.40;14.95;;;;;;;-10.55;100.00;94104.13;2070688;28;20026;-72
2023/02/09 03:42:53;;;;;;;26.60;14.50;;;;;;;-10.01;100.00;94106.06;2072666;28;20457;-73
2023/02/09 03:45:14;;;;;;;20.63;12.93;;;;;;;-9.92;100.00;94101.91;2095435;28;20438;-72
2023/02/09 03:46:15;;;;;;;24.60;13.13;;;;;;;-10.08;100.00;94104.81;2095484;28;20052;-72
2023/02/09 03:47:16;;;;;;;24.00;14.85;;;;;;;-10.22;100.00;94107.94;2094219;28;20541;-75
2023/02/09 03:48:17;;;;;;;23.77;14.60;;;;;;;-10.42;100.00;94103.59;2095389;28;20692;-72
2023/02/09 03:49:19;;;;;;;24.30;14.18;;;;;;;-10.56;100.00;94094.81;2086413;28;20432;-72
2023/02/09 03:50:20;;;;;;;26.52;14.75;;;;;;;-10.59;100.00;94105.66;2086798;28;20862;-72
2023/02/09 03:51:41;;;;;;;26.75;14.85;;;;;;;-10.66;100.00;94100.78;2080080;28;20599;-73
2023/02/09 03:52:42;;;;;;;25.30;14.38;;;;;;;-10.66;100.00;94103.34;2082576;28;20140;-73
2023/02/09 03:53:45;;;;;;;22.92;13.90;;;;;;;-10.66;100.00;94103.34;2095479;28;20521;-73
2023/02/09 03:54:46;;;;;;;22.65;15.65;;;;;;;-10.55;100.00;94101.53;2087525;28;20491;-73
2023/02/09 03:55:50;;;;;;;23.35;14.45;;;;;;;-10.57;100.00;94098.44;2086836;28;20446;-72
2023/02/09 03:57:10;;;;;;;24.90;15.27;;;;;;;-10.62;100.00;94105.41;2095469;28;20427;-72
2023/02/09 03:58:11;;;;;;;27.85;15.32;;;;;;;-10.55;100.00;94101.53;2095251;28;20458;-72
2023/02/09 03:59:12;;;;;;;28.15;15.70;;;;;;;-10.74;100.00;94101.28;2087787;28;20040;-71
2023/02/09 04:00:14;;;;;;;25.92;15.45;;;;;;;-10.63;100.00;94109.03;2079327;28;20444;-71
2023/02/09 04:01:16;;;;;;;25.63;14.52;;;;;;;-10.72;100.00;94109.53;2079649;28;20510;-72
2023/02/09 04:02:20;;;;;;;25.45;15.32;;;;;;;-10.78;100.00;94107.22;2079536;28;20456;-71
2023/02/09 04:03:21;;;;;;;24.73;14.75;;;;;;;-10.69;100.00;94105.69;2088490;28;20471;-72
2023/02/09 04:04:23;;;;;;;28.08;13.77;;;;;;;-10.80;100.00;94109.28;2080904;28;20444;-72
2023/02/09 04:05:25;;;;;;;27.90;15.07;;;;;;;-10.87;100.00;94112.13;2080770;28;20047;-72
2023/02/09 04:06:28;;;;;;;27.98;15.88;;;;;;;-10.84;100.00;94109.03;2078380;28;20471;-73
2023/02/09 04:07:34;;;;;;;26.35;14.70;;;;;;;-10.93;100.00;94110.56;2088278;28;20439;-72
2023/02/09 04:08:37;;;;;;;26.75;16.05;;;;;;;-10.90;100.00;94104.91;2096044;28;20586;-73
2023/02/09 04:09:38;;;;;;;25.05;14.70;;;;;;;-10.88;100.00;94102.84;2087839;28;20455;-73
2023/02/09 04:10:39;;;;;;;27.40;15.80;;;;;;;-10.83;100.00;94112.41;2085987;28;20467;-73
2023/02/09 04:11:40;;;;;;;29.17;15.55;;;;;;;-10.96;100.00;94106.69;2077492;28;20898;-75
2023/02/09 04:12:42;;;;;;;26.30;14.77;;;;;;;-10.86;100.00;94110.31;2087955;28;20402;-72
2023/02/09 04:13:43;;;;;;;25.92;15.40;;;;;;;-10.89;100.00;94109.00;2096111;28;20455;-73
2023/02/09 04:14:45;;;;;;;25.55;14.23;;;;;;;-10.81;100.00;94107.75;2096002;28;20798;-73
2023/02/09 04:15:46;;;;;;;25.92;15.07;;;;;;;-10.93;100.00;94107.97;2094277;28;20029;-73
2023/02/09 04:16:57;;;;;;;27.27;15.15;;;;;;;-10.93;100.00;94111.38;2085708;28;20424;-71
2023/02/09 04:17:58;;;;;;;24.63;15.13;;;;;;;-11.02;100.00;94114.69;2094952;28;20518;-72
2023/02/09 04:18:59;;;;;;;25.05;15.30;;;;;;;-11.00;100.00;94116.00;2094062;28;20461;-75
2023/02/09 04:20:00;;;;;;;27.52;15.25;;;;;;;-10.99;100.00;94122.69;2095313;28;20481;-73
2023/02/09 04:21:02;;;;;;;25.80;14.75;;;;;;;-11.05;100.00;94120.38;2086250;28;20517;-76
2023/02/09 04:22:03;;;;;;;26.33;15.00;;;;;;;-11.07;100.00;94114.69;2072799;28;20471;-72
2023/02/09 04:23:04;;;;;;;25.38;15.10;;;;;;;-11.00;100.00;94117.81;2087300;28;20470;-72
2023/02/09 04:24:06;;;;;;;25.83;15.55;;;;;;;-11.11;100.00;94124.75;2094787;28;20032;-73
2023/02/09 04:25:09;;;;;;;26.40;15.15;;;;;;;-11.02;100.00;94117.25;2086982;28;20199;-72
2023/02/09 04:26:10;;;;;;;24.48;14.98;;;;;;;-10.85;100.00;94122.97;2085770;28;20451;-72
2023/02/09 04:27:22;;;;;;;26.98;14.43;;;;;;;-11.03;100.00;94126.03;2088503;28;20509;-73
2023/02/09 04:28:23;;;;;;;25.23;15.02;;;;;;;-10.96;100.00;94122.19;2095665;28;20457;-74
2023/02/09 04:29:25;;;;;;;26.42;14.60;;;;;;;-10.85;100.00;94127.34;2095221;28;20035;-72
2023/02/09 04:30:26;;;;;;;24.05;15.10;;;;;;;-11.05;100.00;94118.56;2085596;28;20455;-72
2023/02/09 04:31:27;;;;;;;26.23;15.15;;;;;;;-11.00;100.00;94120.38;2087379;28;20985;-73
2023/02/09 04:32:28;;;;;;;24.13;15.77;;;;;;;-10.98;100.00;94128.63;2095664;28;20497;-72
2023/02/09 04:33:29;;;;;;;23.92;14.63;;;;;;;-10.85;100.00;94117.81;2086371;28;20498;-73
2023/02/09 04:34:30;;;;;;;29.77;15.80;;;;;;;-10.93;100.00;94116.53;2086905;28;20466;-74
2023/02/09 04:35:31;;;;;;;26.17;15.30;;;;;;;-10.64;100.00;94122.97;2079563;28;20498;-73
2023/02/09 04:36:32;;;;;;;24.83;14.85;;;;;;;-10.85;100.00;94127.34;2086987;28;20501;-74
2023/02/09 04:37:33;;;;;;;25.63;15.20;;;;;;;-10.86;100.00;94125.81;2094809;28;20024;-72
2023/02/09 04:38:34;;;;;;;26.98;15.60;;;;;;;-10.95;100.00;94128.13;2095889;28;20461;-72
2023/02/09 04:39:35;;;;;;;23.60;14.00;;;;;;;-10.45;100.00;94121.41;2096952;28;20036;-72
2023/02/09 04:40:36;;;;;;;29.08;15.02;;;;;;;-10.74;100.00;94121.94;2096973;28;20489;-73
2023/02/09 04:41:37;;;;;;;28.92;15.05;;;;;;;-10.88;100.00;94120.91;2094256;28;20474;-72
2023/02/09 04:42:47;;;;;;;28.08;15.18;;;;;;;-10.85;100.00;94117.81;2096659;28;20443;-75
2023/02/09 04:43:48;;;;;;;24.52;13.13;;;;;;;-11.00;100.00;94120.38;2097127;28;20435;-73
2023/02/09 04:44:52;;;;;;;25.35;14.18;;;;;;;-11.09;100.00;94122.69;2086102;28;20475;-73
2023/02/09 04:45:53;;;;;;;24.83;14.13;;;;;;;-11.11;100.00;94124.75;2087484;28;20456;-73
2023/02/09 04:46:54;;;;;;;31.50;14.68;;;;;;;-11.08;100.00;94123.47;2092172;28;20920;-72
2023/02/09 04:47:55;;;;;;;26.90;14.68;;;;;;;-11.19;100.00;94133.00;2085566;28;20439;-73
2023/02/09 04:48:56;;;;;;;22.45;14.13;;;;;;;-11.24;100.00;94135.56;2087752;28;20083;-75
2023/02/09 04:49:57;;;;;;;26.73;14.50;;;;;;;-11.22;100.00;94123.94;2095806;28;20548;-72
2023/02/09 04:50:58;;;;;;;28.20;14.68;;;;;;;-11.10;100.00;94123.72;2094596;28;20056;-73
2023/02/09 04:52:00;;;;;;;27.40;15.25;;;;;;;-11.21;100.00;94124.72;2094729;28;20497;-72
2023/02/09 04:53:01;;;;;;;27.33;15.30;;;;;;;-11.23;100.00;94127.56;2094856;28;20804;-74
2023/02/09 04:54:02;;;;;;;26.98;14.65;;;;;;;-11.21;100.00;94124.72;2095748;28;20504;-74
2023/02/09 04:55:03;;;;;;;32.35;14.98;;;;;;;-11.22;100.00;94123.94;2096682;28;20445;-74
2023/02/09 04:56:06;;;;;;;27.75;15.48;;;;;;;-11.22;100.00;94128.34;2094964;28;20554;-73
2023/02/09 04:59:46;;;;;;;24.25;14.20;;;;;;;-11.27;100.00;94121.38;2095186;28;20036;-74
2023/02/09 05:00:47;;;;;;;25.92;14.10;;;;;;;-11.31;100.00;94122.91;2094159;28;20390;-72
2023/02/09 05:01:48;;;;;;;26.85;14.25;;;;;;;-11.20;100.00;94127.03;2094371;28;20462;-73
2023/02/09 05:02:49;;;;;;;28.38;15.82;;;;;;;-11.23;100.00;94125.00;2094904;28;20443;-73
2023/02/09 05:03:51;;;;;;;26.85;14.57;;;;;;;-11.39;100.00;94127.78;2086050;28;20052;-73